createdAt,value
2023-07-09T00:03:19.114Z,6.43
2023-07-09T00:06:21.939Z,6.70
2023-07-09T00:09:24.133Z,7.43
2023-07-09T00:12:26.408Z,6.25
2023-07-09T00:15:28.164Z,6.25
2023-07-09T00:18:29.648Z,6.00
2023-07-09T00:21:35.054Z,6.38
2023-07-09T00:24:36.678Z,6.72
2023-07-09T00:27:39.497Z,6.53
2023-07-09T00:30:41.416Z,6.55
2023-07-09T00:33:43.870Z,6.63
2023-07-09T00:36:45.539Z,6.70
2023-07-09T00:39:48.185Z,6.72
2023-07-09T00:42:53.374Z,6.60
2023-07-09T00:46:13.732Z,6.20
2023-07-09T00:49:27.655Z,6.30
2023-07-09T00:52:36.819Z,6.80
2023-07-09T00:55:43.722Z,6.90
2023-07-09T00:58:49.029Z,7.25
2023-07-09T01:01:52.016Z,7.25
2023-07-09T01:05:01.778Z,6.30
2023-07-09T01:08:07.037Z,7.43
2023-07-09T01:11:22.658Z,6.85
2023-07-09T01:14:27.003Z,6.63
2023-07-09T01:17:29.807Z,6.57
2023-07-09T01:20:31.972Z,7.82
2023-07-09T01:23:33.506Z,6.60
2023-07-09T01:26:36.119Z,6.10
2023-07-09T01:29:38.842Z,6.53
2023-07-09T01:32:41.727Z,6.47
2023-07-09T01:35:43.570Z,6.30
2023-07-09T01:38:45.568Z,6.50
2023-07-09T01:41:48.551Z,6.95
2023-07-09T01:44:52.431Z,6.38
2023-07-09T01:47:54.908Z,7.28
2023-07-09T01:50:57.076Z,6.55
2023-07-09T01:54:00.929Z,7.05
2023-07-09T01:57:18.311Z,6.38
2023-07-09T02:00:20.357Z,6.85
2023-07-09T02:03:26.077Z,6.57
2023-07-09T02:06:32.896Z,7.35
2023-07-09T02:09:34.498Z,6.47
2023-07-09T02:12:36.028Z,6.38
2023-07-09T02:15:37.640Z,6.53
2023-07-09T02:18:40.361Z,6.50
2023-07-09T02:21:41.841Z,6.20
2023-07-09T02:24:43.565Z,6.90
2023-07-09T02:27:46.232Z,6.93
2023-07-09T02:30:47.873Z,6.55
2023-07-09T02:33:49.408Z,6.45
2023-07-09T02:36:50.914Z,6.20
2023-07-09T02:39:53.266Z,6.78
2023-07-09T02:42:55.385Z,6.47
2023-07-09T02:45:56.932Z,6.60
2023-07-09T02:48:58.941Z,6.30
2023-07-09T02:52:00.762Z,6.35
2023-07-09T02:55:02.383Z,6.90
2023-07-09T02:58:03.933Z,5.97
2023-07-09T03:01:06.496Z,6.40
2023-07-09T03:04:09.486Z,6.72
2023-07-09T03:07:11.188Z,6.90
2023-07-09T03:10:12.773Z,6.32
2023-07-09T03:13:14.409Z,6.47
2023-07-09T03:16:16.979Z,7.03
2023-07-09T03:19:18.591Z,6.65
2023-07-09T03:22:20.058Z,5.85
2023-07-09T03:25:21.592Z,6.15
2023-07-09T03:28:23.707Z,7.50
2023-07-09T03:31:25.502Z,6.38
2023-07-09T03:34:27.097Z,6.97
2023-07-09T03:37:28.621Z,6.20
2023-07-09T03:40:30.606Z,6.07
2023-07-09T03:43:32.167Z,6.40
2023-07-09T03:46:33.706Z,6.80
2023-07-09T03:49:35.289Z,6.60
2023-07-09T03:52:37.017Z,6.97
2023-07-09T03:55:38.824Z,6.75
2023-07-09T03:58:40.434Z,6.65
2023-07-09T04:01:47.516Z,6.97
2023-07-09T04:04:49.162Z,6.30
2023-07-09T04:07:51.250Z,6.70
2023-07-09T04:11:00.169Z,6.35
2023-07-09T04:14:01.751Z,6.38
2023-07-09T04:17:03.882Z,5.97
2023-07-09T04:20:08.383Z,6.47
2023-07-09T04:23:11.634Z,6.22
2023-07-09T04:26:14.964Z,6.10
2023-07-09T04:29:16.516Z,6.43
2023-07-09T04:32:18.118Z,6.35
2023-07-09T04:35:19.742Z,6.00
2023-07-09T04:38:21.437Z,6.00
2023-07-09T04:41:22.974Z,6.30
2023-07-09T04:44:25.941Z,6.25
2023-07-09T04:47:27.504Z,6.43
2023-07-09T04:50:29.036Z,6.90
2023-07-09T04:53:30.540Z,6.70
2023-07-09T04:56:32.266Z,6.82
2023-07-09T04:59:33.997Z,6.88
2023-07-09T05:02:35.578Z,6.47
2023-07-09T05:05:43.514Z,6.53
2023-07-09T05:08:45.080Z,6.50
2023-07-09T05:11:47.020Z,6.65
2023-07-09T05:14:48.722Z,6.80
2023-07-09T05:17:50.407Z,6.32
2023-07-09T05:20:52.156Z,6.35
2023-07-09T05:23:53.726Z,6.25
2023-07-09T05:26:55.969Z,7.13
2023-07-09T05:29:57.626Z,7.68
2023-07-09T05:33:00.279Z,6.68
2023-07-09T05:36:03.545Z,6.68
2023-07-09T05:39:05.506Z,6.72
2023-07-09T05:42:07.429Z,6.85
2023-07-09T05:45:09.358Z,6.28
2023-07-09T05:48:10.880Z,6.35
2023-07-09T05:51:12.454Z,6.38
2023-07-09T05:54:14.052Z,6.03
2023-07-09T05:57:15.637Z,5.85
2023-07-09T06:00:17.647Z,6.00
2023-07-09T06:03:19.384Z,6.20
2023-07-09T06:06:21.443Z,5.80
2023-07-09T06:09:23.071Z,6.22
2023-07-09T06:12:24.712Z,6.85
2023-07-09T06:15:27.120Z,6.30
2023-07-09T06:18:31.948Z,6.30
2023-07-09T06:21:33.559Z,5.53
2023-07-09T06:24:35.080Z,6.55
2023-07-09T06:27:36.636Z,6.15
2023-07-09T06:30:38.246Z,6.18
2023-07-09T06:33:39.807Z,6.13
2023-07-09T06:36:42.827Z,6.25
2023-07-09T06:39:46.021Z,5.15
2023-07-09T06:42:47.571Z,5.43
2023-07-09T06:46:01.498Z,5.97
2023-07-09T06:49:06.567Z,5.90
2023-07-09T06:52:08.175Z,6.07
2023-07-09T06:55:09.751Z,6.13
2023-07-09T06:58:11.355Z,6.18
2023-07-09T07:01:13.344Z,6.03
2023-07-09T07:04:14.929Z,6.50
2023-07-09T07:07:16.535Z,6.53
2023-07-09T07:10:18.038Z,5.88
2023-07-09T07:13:19.579Z,5.82
2023-07-09T07:16:21.193Z,6.22
2023-07-09T07:19:22.821Z,5.97
2023-07-09T07:22:24.320Z,5.82
2023-07-09T07:25:26.223Z,5.88
2023-07-09T07:28:27.706Z,6.18
2023-07-09T07:31:29.286Z,6.32
2023-07-09T07:34:30.889Z,5.72
2023-07-09T07:37:32.555Z,6.70
2023-07-09T07:40:34.069Z,6.03
2023-07-09T07:43:35.637Z,5.43
2023-07-09T07:46:37.185Z,5.93
2023-07-09T07:49:38.968Z,6.68
2023-07-09T07:52:40.628Z,6.13
2023-07-09T07:55:43.083Z,6.20
2023-07-09T07:58:44.983Z,5.90
2023-07-09T08:01:46.485Z,6.28
2023-07-09T08:04:48.176Z,5.72
2023-07-09T08:07:49.649Z,6.38
2023-07-09T08:10:52.264Z,6.28
2023-07-09T08:13:54.089Z,6.20
2023-07-09T08:16:55.819Z,5.30
2023-07-09T08:19:57.423Z,5.68
2023-07-09T08:22:58.886Z,6.30
2023-07-09T08:26:04.286Z,6.03
2023-07-09T08:29:06.410Z,6.32
2023-07-09T08:32:08.841Z,7.18
2023-07-09T08:38:18.079Z,6.22
2023-07-09T08:41:38.037Z,6.47
2023-07-09T08:44:55.353Z,6.30
2023-07-09T08:48:09.192Z,6.30
2023-07-09T08:51:16.167Z,6.18
2023-07-09T08:54:34.653Z,6.07
2023-07-09T08:57:43.513Z,6.20
2023-07-09T09:00:55.951Z,7.43
2023-07-09T09:04:07.479Z,5.80
2023-07-09T09:07:11.929Z,6.22
2023-07-09T09:10:22.514Z,5.85
2023-07-09T09:13:28.988Z,5.97
2023-07-09T09:16:40.290Z,6.00
2023-07-09T09:19:53.011Z,5.30
2023-07-09T09:23:09.611Z,6.00
2023-07-09T09:26:19.320Z,5.88
2023-07-09T09:29:20.890Z,5.65
2023-07-09T09:32:31.523Z,6.55
2023-07-09T09:35:38.858Z,6.53
2023-07-09T09:38:40.368Z,6.00
2023-07-09T09:41:43.650Z,5.68
2023-07-09T09:44:46.403Z,6.18
2023-07-09T09:47:49.749Z,5.60
2023-07-09T09:50:52.505Z,5.97
2023-07-09T09:54:02.680Z,5.93
2023-07-09T09:57:04.385Z,5.57
2023-07-09T10:00:08.260Z,5.45
2023-07-09T10:03:11.665Z,5.72
2023-07-09T10:06:19.406Z,6.75
2023-07-09T10:09:46.846Z,6.00
2023-07-09T10:12:58.910Z,5.72
2023-07-09T10:16:31.098Z,5.75
2023-07-09T10:19:47.268Z,5.70
2023-07-09T10:22:56.238Z,5.90
2023-07-09T10:26:31.024Z,5.90
2023-07-09T10:30:11.962Z,5.90
2023-07-09T10:33:29.149Z,5.68
2023-07-09T10:37:04.320Z,4.93
2023-07-09T10:40:10.786Z,5.72
2023-07-09T10:43:19.685Z,6.15
2023-07-09T10:46:26.143Z,5.85
2023-07-09T10:49:34.383Z,5.38
2023-07-09T10:52:40.126Z,5.72
2023-07-09T10:55:47.742Z,5.72
2023-07-09T10:59:02.068Z,6.40
2023-07-09T11:02:24.597Z,5.65
2023-07-09T11:05:26.285Z,5.63
2023-07-09T11:08:36.037Z,6.13
2023-07-09T11:11:45.076Z,5.68
2023-07-09T11:14:56.954Z,6.15
2023-07-09T11:17:59.905Z,5.75
2023-07-09T11:21:06.819Z,6.13
2023-07-09T11:24:48.054Z,5.88
2023-07-09T11:27:53.053Z,5.57
2023-07-09T11:30:56.026Z,5.85
2023-07-09T11:34:03.102Z,5.78
2023-07-09T11:37:12.969Z,5.72
2023-07-09T11:40:15.747Z,5.53
2023-07-09T11:43:35.507Z,6.07
2023-07-09T11:46:51.813Z,6.10
2023-07-09T11:50:00.435Z,5.88
2023-07-09T11:53:04.770Z,5.80
2023-07-09T11:56:09.503Z,6.45
2023-07-09T11:59:12.784Z,5.95
2023-07-09T12:05:29.647Z,5.93
2023-07-09T12:08:37.663Z,6.10
2023-07-09T12:11:46.598Z,6.80
2023-07-09T12:14:48.315Z,6.07
2023-07-09T12:18:06.226Z,5.90
2023-07-09T12:21:10.456Z,6.03
2023-07-09T12:24:28.857Z,6.15
2023-07-09T12:27:38.206Z,5.65
2023-07-09T12:30:43.355Z,5.82
2023-07-09T12:33:51.468Z,6.03
2023-07-09T12:36:54.888Z,5.88
2023-07-09T12:39:57.413Z,6.35
2023-07-09T12:43:00.282Z,5.78
2023-07-09T12:46:02.752Z,5.93
2023-07-09T12:49:07.009Z,5.73
2023-07-09T12:52:19.619Z,5.53
2023-07-09T12:55:26.674Z,6.43
2023-07-09T12:58:38.617Z,6.57
2023-07-09T13:01:40.866Z,6.38
2023-07-09T13:04:42.886Z,5.90
2023-07-09T13:07:50.419Z,5.43
2023-07-09T13:10:52.898Z,6.35
2023-07-09T13:14:04.474Z,6.47
2023-07-09T13:17:07.716Z,5.60
2023-07-09T13:20:09.575Z,6.35
2023-07-09T13:23:17.250Z,6.60
2023-07-09T13:26:18.842Z,5.65
2023-07-09T13:29:21.065Z,5.60
2023-07-09T13:32:23.704Z,5.80
2023-07-09T13:38:28.478Z,6.22
2023-07-09T13:41:30.144Z,6.75
2023-07-09T13:44:32.052Z,6.60
2023-07-09T13:47:34.440Z,6.78
2023-07-09T13:50:36.178Z,6.72
2023-07-09T13:53:37.806Z,6.70
2023-07-09T13:56:40.821Z,5.97
2023-07-09T13:59:43.031Z,6.40
2023-07-09T14:02:46.464Z,6.40
2023-07-09T14:05:48.664Z,6.90
2023-07-09T14:08:50.287Z,6.57
2023-07-09T14:11:53.849Z,6.68
2023-07-09T14:14:59.985Z,6.80
2023-07-09T14:18:01.639Z,7.25
2023-07-09T14:21:13.445Z,7.75
2023-07-09T14:24:21.068Z,8.27
2023-07-09T14:27:22.659Z,8.93
2023-07-09T14:30:28.358Z,8.02
2023-07-09T14:33:31.152Z,9.38
2023-07-09T14:36:32.738Z,9.00
2023-07-09T14:39:34.373Z,9.27
2023-07-09T14:42:37.557Z,10.13
2023-07-09T14:45:39.361Z,10.50
2023-07-09T14:48:40.893Z,10.32
2023-07-09T14:51:42.570Z,10.20
2023-07-09T14:54:46.045Z,10.38
2023-07-09T14:57:48.645Z,9.80
2023-07-09T15:00:51.201Z,10.25
2023-07-09T15:03:52.831Z,10.80
2023-07-09T15:06:55.629Z,10.60
2023-07-09T15:09:59.244Z,10.10
2023-07-09T15:13:00.877Z,9.52
2023-07-09T15:16:05.231Z,9.70
2023-07-09T15:19:18.242Z,9.55
2023-07-09T15:22:34.475Z,10.10
2023-07-09T15:25:36.246Z,10.05
2023-07-09T15:28:37.756Z,11.40
2023-07-09T15:31:39.549Z,11.73
2023-07-09T15:34:41.475Z,11.88
2023-07-09T15:37:43.446Z,10.73
2023-07-09T15:40:49.210Z,9.40
2023-07-09T15:43:50.930Z,7.20
2023-07-09T15:46:56.988Z,6.10
2023-07-09T15:49:59.439Z,6.38
2023-07-09T15:53:00.969Z,6.15
2023-07-09T15:56:13.821Z,6.18
2023-07-09T15:59:27.251Z,5.30
2023-07-09T16:02:28.919Z,6.28
2023-07-09T16:05:31.629Z,5.38
2023-07-09T16:08:33.309Z,6.00
2023-07-09T16:11:37.031Z,5.55
2023-07-09T16:14:38.624Z,6.30
2023-07-09T16:17:40.292Z,6.03
2023-07-09T16:20:42.315Z,6.25
2023-07-09T16:23:44.109Z,6.00
2023-07-09T16:26:45.703Z,6.40
2023-07-09T16:29:47.262Z,5.78
2023-07-09T16:32:49.126Z,6.32
2023-07-09T16:35:52.657Z,6.63
2023-07-09T16:38:54.296Z,6.38
2023-07-09T16:44:58.221Z,6.65
2023-07-09T16:47:59.839Z,6.35
2023-07-09T16:51:01.418Z,5.90
2023-07-09T16:54:04.484Z,6.22
2023-07-09T16:57:13.438Z,7.13
2023-07-09T17:00:30.979Z,6.70
2023-07-09T17:03:33.743Z,6.90
2023-07-09T17:06:36.938Z,7.22
2023-07-09T17:09:38.931Z,6.63
2023-07-09T17:12:41.845Z,6.15
2023-07-09T17:15:43.721Z,5.82
2023-07-09T17:18:45.409Z,5.65
2023-07-09T17:21:48.986Z,5.63
2023-07-09T17:24:50.719Z,5.93
2023-07-09T17:27:52.803Z,5.72
2023-07-09T17:30:54.892Z,6.30
2023-07-09T17:33:56.493Z,6.47
2023-07-09T17:36:58.504Z,6.18
2023-07-09T17:43:02.035Z,5.68
2023-07-09T17:46:04.319Z,7.05
2023-07-09T17:49:13.618Z,6.20
2023-07-09T17:52:20.767Z,6.15
2023-07-09T17:55:24.616Z,5.97
2023-07-09T17:58:36.620Z,6.35
2023-07-09T18:04:39.885Z,6.05
2023-07-09T18:07:41.815Z,6.43
2023-07-09T18:10:45.822Z,7.93
2023-07-09T18:13:47.836Z,6.10
2023-07-09T18:16:50.683Z,6.70
2023-07-09T18:19:52.920Z,7.10
2023-07-09T18:22:54.503Z,5.88
2023-07-09T18:25:56.015Z,6.45
2023-07-09T18:28:57.557Z,5.82
2023-07-09T18:32:03.921Z,6.63
2023-07-09T18:35:18.695Z,5.85
2023-07-09T18:38:20.325Z,6.47
2023-07-09T18:41:21.981Z,5.80
2023-07-09T18:44:26.714Z,6.23
2023-07-09T18:47:28.319Z,6.20
2023-07-09T18:50:33.028Z,6.22
2023-07-09T18:53:35.776Z,6.57
2023-07-09T18:56:37.492Z,6.40
2023-07-09T18:59:39.453Z,6.35
2023-07-09T19:02:43.068Z,6.38
2023-07-09T19:05:46.575Z,5.78
2023-07-09T19:08:48.126Z,6.18
2023-07-09T19:11:50.632Z,6.70
2023-07-09T19:14:52.181Z,6.78
2023-07-09T19:17:53.809Z,6.30
2023-07-09T19:20:57.016Z,6.78
2023-07-09T19:27:00.577Z,6.40
2023-07-09T19:30:02.269Z,6.15
2023-07-09T19:33:04.081Z,6.75
2023-07-09T19:36:26.916Z,6.95
2023-07-09T19:39:35.098Z,6.40
2023-07-09T19:42:36.605Z,6.40
2023-07-09T19:45:41.614Z,7.00
2023-07-09T19:48:43.210Z,6.40
2023-07-09T19:51:44.903Z,6.85
2023-07-09T19:54:47.490Z,6.43
2023-07-09T19:57:50.981Z,6.43
2023-07-09T20:03:55.084Z,6.43
2023-07-09T20:06:57.092Z,6.43
2023-07-09T20:10:00.369Z,6.47
2023-07-09T20:16:04.585Z,6.75
2023-07-09T20:19:14.852Z,6.27
2023-07-09T20:22:25.386Z,6.75
2023-07-09T20:25:26.981Z,6.47
2023-07-09T20:28:30.146Z,6.35
2023-07-09T20:31:32.300Z,6.20
2023-07-09T20:34:34.019Z,5.95
2023-07-09T20:37:35.590Z,7.00
2023-07-09T20:40:37.209Z,6.68
2023-07-09T20:43:40.390Z,6.15
2023-07-09T20:46:42.733Z,6.13
2023-07-09T20:49:44.621Z,5.85
2023-07-09T20:52:46.641Z,6.05
2023-07-09T20:55:48.454Z,5.85
2023-07-09T20:58:50.877Z,6.28
2023-07-09T21:01:52.536Z,5.85
2023-07-09T21:04:57.719Z,6.78
2023-07-09T21:07:59.314Z,6.93
2023-07-09T21:11:00.784Z,6.60
2023-07-09T21:14:02.910Z,6.70
2023-07-09T21:17:05.529Z,6.80
2023-07-09T21:20:15.225Z,6.45
2023-07-09T21:23:23.640Z,6.35
2023-07-09T21:26:25.761Z,6.45
2023-07-09T21:29:28.741Z,6.85
2023-07-09T21:32:31.867Z,6.32
2023-07-09T21:35:33.510Z,6.13
2023-07-09T21:38:35.067Z,5.95
2023-07-09T21:41:36.604Z,6.18
2023-07-09T21:44:38.160Z,6.88
2023-07-09T21:47:39.679Z,6.80
2023-07-09T21:50:41.804Z,6.43
2023-07-09T21:54:11.008Z,6.38
2023-07-09T21:57:05.180Z,6.47
2023-07-09T22:00:11.840Z,6.45
2023-07-09T22:03:15.960Z,6.70
2023-07-09T22:06:17.515Z,6.82
2023-07-09T22:09:19.091Z,6.45
2023-07-09T22:12:21.378Z,6.85
2023-07-09T22:15:26.465Z,6.38
2023-07-09T22:18:28.088Z,7.03
2023-07-09T22:21:31.228Z,6.85
2023-07-09T22:24:32.758Z,6.63
2023-07-09T22:27:34.278Z,6.90
2023-07-09T22:30:35.804Z,6.63
2023-07-09T22:33:37.377Z,6.35
2023-07-09T22:36:38.883Z,6.50
2023-07-09T22:39:40.379Z,7.00
2023-07-09T22:42:41.917Z,6.30
2023-07-09T22:45:47.629Z,6.53
2023-07-09T22:48:53.955Z,6.35
2023-07-09T22:51:55.606Z,7.32
2023-07-09T22:54:58.883Z,6.22
2023-07-09T22:58:03.433Z,6.72
2023-07-09T23:01:18.045Z,6.50
2023-07-09T23:04:19.712Z,6.20
2023-07-09T23:07:21.402Z,6.63
2023-07-09T23:10:23.000Z,6.40
2023-07-09T23:13:27.672Z,7.10
2023-07-09T23:16:31.071Z,7.03
2023-07-09T23:19:32.709Z,6.82
2023-07-09T23:22:34.305Z,6.25
2023-07-09T23:25:36.427Z,6.72
2023-07-09T23:28:38.140Z,6.97
2023-07-09T23:31:39.664Z,6.30
2023-07-09T23:34:41.453Z,6.50
2023-07-09T23:37:43.785Z,6.60
2023-07-09T23:40:46.012Z,7.07
2023-07-09T23:43:48.374Z,6.28
2023-07-09T23:46:50.313Z,6.45
2023-07-09T23:49:51.896Z,6.90
2023-07-09T23:52:53.512Z,6.55
2023-07-09T23:55:58.047Z,7.22
2023-07-09T23:59:01.235Z,6.85
